Holland Patent, New York
Current Conditions -  °F | °C
As of 8:53 AM on Saturday 25 Oct 2014 (Local Time) from KRME Reporting Station
Overcast Overcast  
Wind Chill: 45°   Ceiling: 2900
Heat Index: 45°   Visibility: 10mi
Dew Point: 43°   Wind: 0mph
Humidity: 93%   Direction: NA
Pressure: 29.85"   Gusts: NA
Location:  43.24°N, 75.26°W
Report Text: KRME 251253Z 00000KT 10SM OVC029 07/06 A2985 RMK AO2 SLP109 T00720061
Loading
Personal Weather Stations






























Interactive Weather Map
Tropical Storm Tracking
New forecast layout! Learn more

10-Day Weather Forecast

Advertisements
Track Severe Weather on mobile